createdAt,value
2022-11-24T00:01:39.102Z,0.84
2022-11-24T00:04:25.918Z,0.92
2022-11-24T00:07:13.180Z,0.87
2022-11-24T00:09:59.913Z,0.84
2022-11-24T00:12:46.753Z,0.79
2022-11-24T00:15:33.504Z,0.73
2022-11-24T00:18:21.925Z,0.73
2022-11-24T00:21:08.925Z,0.68
2022-11-24T00:23:56.331Z,0.69
2022-11-24T00:26:43.580Z,0.78
2022-11-24T00:29:32.514Z,0.67
2022-11-24T00:32:19.448Z,0.72
2022-11-24T00:35:10.973Z,0.78
2022-11-24T00:37:57.690Z,0.78
2022-11-24T00:40:44.534Z,0.64
2022-11-24T00:43:31.259Z,0.83
2022-11-24T00:46:18.299Z,0.91
2022-11-24T00:49:05.526Z,0.82
2022-11-24T00:51:52.324Z,0.72
2022-11-24T00:54:39.451Z,0.79
2022-11-24T00:57:26.572Z,0.84
2022-11-24T01:00:16.889Z,0.85
2022-11-24T01:03:04.010Z,0.83
2022-11-24T01:05:50.725Z,0.84
2022-11-24T01:08:39.331Z,0.74
2022-11-24T01:11:51.864Z,0.73
2022-11-24T01:14:39.482Z,0.84
2022-11-24T01:17:27.121Z,0.83
2022-11-24T01:20:14.444Z,0.87
2022-11-24T01:23:01.083Z,0.90
2022-11-24T01:25:48.111Z,0.91
2022-11-24T01:28:35.352Z,0.82
2022-11-24T01:31:22.860Z,0.77
2022-11-24T01:34:09.532Z,0.93
2022-11-24T01:36:56.247Z,0.90
2022-11-24T01:39:42.794Z,0.97
2022-11-24T01:42:40.495Z,1.00
2022-11-24T01:45:32.970Z,1.02
2022-11-24T01:48:43.921Z,0.98
2022-11-24T01:51:33.416Z,1.05
2022-11-24T01:54:45.859Z,1.00
2022-11-24T01:57:39.441Z,1.04
2022-11-24T02:00:26.390Z,0.89
2022-11-24T02:03:22.044Z,0.92
2022-11-24T02:06:14.238Z,0.92
2022-11-24T02:09:09.694Z,1.14
2022-11-24T02:11:57.429Z,1.13
2022-11-24T02:14:45.218Z,1.01
2022-11-24T02:17:35.157Z,1.00
2022-11-24T02:20:22.065Z,0.98
2022-11-24T02:23:27.501Z,0.99
2022-11-24T02:26:36.403Z,0.92
2022-11-24T02:29:23.366Z,1.01
2022-11-24T02:32:10.512Z,1.02
2022-11-24T02:35:05.262Z,1.04
2022-11-24T02:37:51.769Z,0.90
2022-11-24T02:40:38.817Z,0.99
2022-11-24T02:43:26.095Z,0.94
2022-11-24T02:46:13.256Z,0.99
2022-11-24T02:49:00.102Z,0.93
2022-11-24T02:51:46.922Z,1.09
2022-11-24T02:54:34.174Z,1.07
2022-11-24T02:57:23.084Z,1.10
2022-11-24T03:00:11.292Z,0.98
2022-11-24T03:02:58.779Z,1.05
2022-11-24T03:05:45.590Z,1.12
2022-11-24T03:08:35.062Z,1.10
2022-11-24T03:11:22.033Z,1.08
2022-11-24T03:14:12.104Z,0.93
2022-11-24T03:16:59.141Z,1.14
2022-11-24T03:19:46.544Z,1.04
2022-11-24T03:22:33.202Z,0.87
2022-11-24T03:25:20.342Z,0.89
2022-11-24T03:28:07.211Z,0.96
2022-11-24T03:30:57.262Z,0.98
2022-11-24T03:33:43.915Z,0.76
2022-11-24T03:36:30.628Z,0.94
2022-11-24T03:39:17.157Z,0.77
2022-11-24T03:42:03.995Z,0.94
2022-11-24T03:44:50.469Z,0.87
2022-11-24T03:47:37.654Z,0.79
2022-11-24T03:50:24.391Z,0.91
2022-11-24T03:53:11.487Z,0.84
2022-11-24T03:55:58.532Z,0.75
2022-11-24T03:58:45.500Z,0.88
2022-11-24T04:01:32.223Z,1.00
2022-11-24T04:04:19.692Z,0.91
2022-11-24T04:07:06.277Z,0.83
2022-11-24T04:09:53.586Z,0.76
2022-11-24T04:12:46.393Z,0.63
2022-11-24T04:15:33.583Z,0.58
2022-11-24T04:18:20.961Z,0.64
2022-11-24T04:21:10.875Z,0.66
2022-11-24T04:23:59.431Z,0.76
2022-11-24T04:26:46.143Z,0.82
2022-11-24T04:29:33.047Z,0.85
2022-11-24T04:32:20.056Z,0.85
2022-11-24T04:35:07.027Z,0.84
2022-11-24T04:37:54.393Z,0.73
2022-11-24T04:40:40.821Z,0.69
2022-11-24T04:43:27.766Z,0.73
2022-11-24T04:46:14.718Z,0.65
2022-11-24T04:49:01.977Z,0.89
2022-11-24T04:51:48.787Z,0.82
2022-11-24T04:54:38.033Z,0.72
2022-11-24T04:57:26.985Z,0.94
2022-11-24T05:00:16.740Z,0.93
2022-11-24T05:03:03.093Z,0.97
2022-11-24T05:05:50.285Z,0.95
2022-11-24T05:08:37.032Z,0.85
2022-11-24T05:11:24.252Z,1.01
2022-11-24T05:14:10.818Z,0.90
2022-11-24T05:16:57.765Z,0.96
2022-11-24T05:19:44.370Z,0.93
2022-11-24T05:22:31.978Z,1.00
2022-11-24T05:25:18.212Z,1.08
2022-11-24T05:28:09.220Z,1.07
2022-11-24T05:31:02.278Z,1.02
2022-11-24T05:33:49.272Z,1.09
2022-11-24T05:36:54.208Z,1.08
2022-11-24T05:39:41.385Z,1.12
2022-11-24T05:42:47.286Z,1.19
2022-11-24T05:45:35.277Z,1.14
2022-11-24T05:48:21.994Z,1.21
2022-11-24T05:51:09.561Z,1.25
2022-11-24T05:53:56.086Z,1.02
2022-11-24T05:56:42.829Z,1.19
2022-11-24T05:59:29.465Z,0.98
2022-11-24T06:02:16.206Z,1.15
2022-11-24T06:05:02.552Z,0.94
2022-11-24T06:07:49.471Z,0.99
2022-11-24T06:10:36.146Z,0.86
2022-11-24T06:13:22.876Z,0.83
2022-11-24T06:16:09.230Z,0.77
2022-11-24T06:18:55.873Z,0.83
2022-11-24T06:21:43.943Z,0.86
2022-11-24T06:24:30.508Z,0.83
2022-11-24T06:27:17.649Z,0.76
2022-11-24T06:30:04.664Z,0.76
2022-11-24T06:32:55.184Z,0.65
2022-11-24T06:35:41.609Z,0.60
2022-11-24T06:38:30.862Z,0.88
2022-11-24T06:41:18.329Z,0.86
2022-11-24T06:44:05.257Z,0.93
2022-11-24T06:46:52.021Z,0.88
2022-11-24T06:49:38.531Z,0.83
2022-11-24T06:52:24.980Z,0.66
2022-11-24T06:55:11.179Z,0.78
2022-11-24T06:57:58.085Z,0.73
2022-11-24T07:00:44.637Z,0.67
2022-11-24T07:03:31.545Z,0.63
2022-11-24T07:06:19.088Z,0.51
2022-11-24T07:09:05.754Z,0.63
2022-11-24T07:11:51.965Z,0.56
2022-11-24T07:14:38.595Z,0.64
2022-11-24T07:17:26.546Z,0.67
2022-11-24T07:20:13.289Z,0.66
2022-11-24T07:23:00.228Z,0.70
2022-11-24T07:25:46.572Z,0.71
2022-11-24T07:28:33.437Z,0.69
2022-11-24T07:31:21.560Z,0.72
2022-11-24T07:34:07.984Z,0.72
2022-11-24T07:36:54.867Z,0.76
2022-11-24T07:39:40.889Z,0.64
2022-11-24T07:42:28.013Z,0.71
2022-11-24T07:45:14.354Z,0.81
2022-11-24T07:48:00.999Z,0.76
2022-11-24T07:50:52.521Z,0.85
2022-11-24T07:53:42.405Z,0.75
2022-11-24T07:56:29.222Z,0.76
2022-11-24T07:59:15.963Z,0.76
2022-11-24T08:02:02.489Z,0.69
2022-11-24T08:04:48.961Z,0.58
2022-11-24T08:07:35.403Z,0.78
2022-11-24T08:10:21.834Z,0.80
2022-11-24T08:13:08.241Z,0.82
2022-11-24T08:15:54.788Z,0.82
2022-11-24T08:18:41.906Z,0.77
2022-11-24T08:21:29.066Z,0.74
2022-11-24T08:24:15.672Z,0.61
2022-11-24T08:27:02.178Z,0.89
2022-11-24T08:29:48.612Z,0.89
2022-11-24T08:32:35.290Z,0.86
2022-11-24T08:35:21.888Z,0.97
2022-11-24T08:38:08.630Z,1.00
2022-11-24T08:40:54.855Z,0.95
2022-11-24T08:43:42.523Z,0.95
2022-11-24T08:46:29.168Z,0.82
2022-11-24T08:49:16.047Z,0.93
2022-11-24T08:52:02.484Z,0.89
2022-11-24T08:54:49.470Z,0.88
2022-11-24T08:57:35.943Z,0.87
2022-11-24T09:00:23.928Z,0.95
2022-11-24T09:03:12.241Z,0.94
2022-11-24T09:05:58.768Z,0.99
2022-11-24T09:08:45.168Z,0.96
2022-11-24T09:11:33.935Z,0.87
2022-11-24T09:14:20.538Z,1.01
2022-11-24T09:17:07.345Z,0.90
2022-11-24T09:22:57.752Z,1.10
2022-11-24T09:25:44.119Z,1.11
2022-11-24T09:28:30.961Z,1.06
2022-11-24T09:31:18.149Z,1.13
2022-11-24T09:34:06.175Z,1.00
2022-11-24T09:36:52.394Z,1.17
2022-11-24T09:39:39.054Z,1.33
2022-11-24T09:42:53.401Z,1.39
2022-11-24T09:48:54.085Z,1.52
2022-11-24T09:51:41.884Z,1.51
2022-11-24T09:54:33.227Z,1.50
2022-11-24T09:57:22.135Z,1.65
2022-11-24T10:00:15.479Z,1.69
2022-11-24T10:03:02.477Z,1.69
2022-11-24T10:05:50.691Z,1.70
2022-11-24T10:09:22.740Z,1.74
2022-11-24T10:12:24.141Z,1.72
2022-11-24T10:15:31.332Z,1.50
2022-11-24T10:18:35.369Z,1.65
2022-11-24T10:21:51.371Z,1.67
2022-11-24T10:24:59.752Z,1.76
2022-11-24T10:27:49.734Z,1.85
2022-11-24T10:30:36.476Z,1.72
2022-11-24T10:33:30.385Z,1.91
2022-11-24T10:36:26.634Z,1.89
2022-11-24T10:39:20.383Z,1.92
2022-11-24T10:42:28.208Z,1.78
2022-11-24T10:45:17.107Z,1.93
2022-11-24T10:48:04.446Z,1.88
2022-11-24T10:50:54.491Z,1.79
2022-11-24T10:53:41.713Z,1.85
2022-11-24T10:56:39.250Z,1.87
2022-11-24T10:59:25.778Z,1.70
2022-11-24T11:02:28.178Z,1.72
2022-11-24T11:05:33.600Z,1.85
2022-11-24T11:08:23.256Z,1.86
2022-11-24T11:11:20.447Z,1.82
2022-11-24T11:14:09.050Z,1.81
2022-11-24T11:16:58.364Z,1.73
2022-11-24T11:19:49.491Z,1.88
2022-11-24T11:22:37.533Z,1.95
2022-11-24T11:25:31.192Z,1.81
2022-11-24T11:28:32.236Z,2.00
2022-11-24T11:31:23.004Z,1.89
2022-11-24T11:34:13.902Z,1.86
2022-11-24T11:37:09.995Z,1.95
2022-11-24T11:39:57.354Z,2.08
2022-11-24T11:43:02.433Z,2.10
2022-11-24T11:45:57.777Z,2.22
2022-11-24T11:48:47.023Z,2.24
2022-11-24T11:52:11.742Z,2.31
2022-11-24T11:55:27.304Z,2.39
2022-11-24T11:58:18.121Z,2.33
2022-11-24T12:01:30.890Z,2.28
2022-11-24T12:04:33.067Z,2.32
2022-11-24T12:08:10.916Z,2.30
2022-11-24T12:11:06.278Z,2.30
2022-11-24T12:14:17.343Z,2.25
2022-11-24T12:17:29.498Z,2.39
2022-11-24T12:20:40.651Z,2.36
2022-11-24T12:23:58.192Z,2.46
2022-11-24T12:26:55.447Z,2.46
2022-11-24T12:29:44.418Z,2.40
2022-11-24T12:32:51.949Z,2.43
2022-11-24T12:35:54.480Z,2.43
2022-11-24T12:38:41.376Z,2.45
2022-11-24T12:41:46.774Z,2.38
2022-11-24T12:45:13.256Z,2.32
2022-11-24T12:48:06.958Z,2.31
2022-11-24T12:50:55.558Z,2.28
2022-11-24T12:53:42.983Z,2.15
2022-11-24T12:56:38.290Z,2.23
2022-11-24T12:59:59.634Z,2.26
2022-11-24T13:02:55.855Z,2.26
2022-11-24T13:06:13.901Z,2.26
2022-11-24T13:09:14.544Z,2.23
2022-11-24T13:12:16.227Z,2.25
2022-11-24T13:15:36.058Z,2.09
2022-11-24T13:18:47.908Z,2.23
2022-11-24T13:21:51.117Z,2.21
2022-11-24T13:24:41.937Z,2.17
2022-11-24T13:27:32.197Z,2.22
2022-11-24T13:30:35.640Z,2.08
2022-11-24T13:33:33.848Z,2.28
2022-11-24T13:36:22.864Z,2.17
2022-11-24T13:39:20.594Z,2.33
2022-11-24T13:42:06.989Z,2.31
2022-11-24T13:45:03.976Z,2.23
2022-11-24T13:47:52.688Z,2.23
2022-11-24T13:51:04.096Z,2.28
2022-11-24T13:53:51.127Z,2.26
2022-11-24T13:56:37.645Z,2.23
2022-11-24T13:59:34.446Z,2.28
2022-11-24T14:02:23.206Z,2.33
2022-11-24T14:05:13.856Z,2.29
2022-11-24T14:08:05.866Z,2.17
2022-11-24T14:10:53.078Z,2.05
2022-11-24T14:13:39.617Z,2.23
2022-11-24T14:16:27.020Z,2.16
2022-11-24T14:19:18.792Z,2.24
2022-11-24T14:22:05.867Z,2.26
2022-11-24T14:24:55.824Z,2.15
2022-11-24T14:27:42.100Z,2.25
2022-11-24T14:30:31.800Z,2.17
2022-11-24T14:33:19.982Z,2.22
2022-11-24T14:36:17.438Z,2.21
2022-11-24T14:39:04.128Z,2.32
2022-11-24T14:41:55.329Z,2.29
2022-11-24T14:44:42.096Z,2.22
2022-11-24T14:47:33.972Z,2.22
2022-11-24T14:50:23.184Z,2.31
2022-11-24T14:53:14.956Z,2.13
2022-11-24T14:56:35.767Z,2.26
2022-11-24T14:59:25.166Z,2.23
2022-11-24T15:02:56.653Z,2.22
2022-11-24T15:05:53.764Z,2.17
2022-11-24T15:08:45.489Z,2.07
2022-11-24T15:11:33.947Z,2.14
2022-11-24T15:14:31.830Z,1.95
2022-11-24T15:17:24.998Z,1.97
2022-11-24T15:20:21.003Z,2.02
2022-11-24T15:23:27.783Z,2.24
2022-11-24T15:26:14.099Z,2.30
2022-11-24T15:29:06.951Z,2.28
2022-11-24T15:31:53.342Z,2.17
2022-11-24T15:35:11.063Z,2.14
2022-11-24T15:37:57.861Z,2.11
2022-11-24T15:40:46.742Z,1.94
2022-11-24T15:43:39.376Z,2.10
2022-11-24T15:46:31.102Z,2.12
2022-11-24T15:49:19.255Z,2.21
2022-11-24T15:52:07.072Z,2.24
2022-11-24T15:54:56.177Z,2.14
2022-11-24T15:57:43.731Z,2.21
2022-11-24T16:00:32.891Z,2.15
2022-11-24T16:03:46.485Z,2.08
2022-11-24T16:06:34.436Z,2.12
2022-11-24T16:09:21.209Z,2.17
2022-11-24T16:12:11.739Z,2.21
2022-11-24T16:15:08.396Z,2.24
2022-11-24T16:17:54.958Z,2.27
2022-11-24T16:20:46.537Z,2.29
2022-11-24T16:23:40.078Z,2.21
2022-11-24T16:26:27.221Z,2.24
2022-11-24T16:29:16.435Z,2.27
2022-11-24T16:32:06.647Z,2.31
2022-11-24T16:34:59.835Z,2.21
2022-11-24T16:37:46.257Z,2.32
2022-11-24T16:40:35.059Z,2.30
2022-11-24T16:43:22.846Z,2.26
2022-11-24T16:46:09.026Z,2.37
2022-11-24T16:49:03.734Z,2.27
2022-11-24T16:51:53.250Z,2.32
2022-11-24T16:54:42.991Z,2.35
2022-11-24T16:57:29.556Z,2.29
2022-11-24T17:00:19.210Z,2.27
2022-11-24T17:03:07.362Z,2.23
2022-11-24T17:05:58.634Z,2.28
2022-11-24T17:08:53.129Z,2.10
2022-11-24T17:11:40.343Z,2.33
2022-11-24T17:14:28.853Z,2.18
2022-11-24T17:17:15.612Z,2.24
2022-11-24T17:20:08.105Z,2.38
2022-11-24T17:23:02.145Z,2.37
2022-11-24T17:25:55.864Z,2.36
2022-11-24T17:28:48.175Z,2.31
2022-11-24T17:31:42.432Z,2.35
2022-11-24T17:34:41.040Z,2.42
2022-11-24T17:37:34.727Z,2.31
2022-11-24T17:40:29.473Z,2.40
2022-11-24T17:43:21.726Z,2.24
2022-11-24T17:46:11.918Z,2.44
2022-11-24T17:49:01.769Z,2.53
2022-11-24T17:51:53.178Z,2.59
2022-11-24T17:54:46.603Z,2.42
2022-11-24T17:57:37.182Z,2.48
2022-11-24T18:00:27.486Z,2.28
2022-11-24T18:03:26.785Z,2.40
2022-11-24T18:06:25.907Z,2.43
2022-11-24T18:09:13.958Z,2.42
2022-11-24T18:12:03.919Z,2.27
2022-11-24T18:14:54.379Z,2.48
2022-11-24T18:17:47.150Z,2.51
2022-11-24T18:20:37.820Z,2.48
2022-11-24T18:23:38.767Z,2.54
2022-11-24T18:26:28.458Z,2.53
2022-11-24T18:29:23.832Z,2.55
2022-11-24T18:32:16.762Z,2.56
2022-11-24T18:35:08.434Z,2.54
2022-11-24T18:37:59.298Z,2.57
2022-11-24T18:41:00.405Z,2.55
2022-11-24T18:43:51.082Z,2.58
2022-11-24T18:46:44.722Z,2.55
2022-11-24T18:49:35.023Z,2.58
2022-11-24T18:52:28.024Z,2.59
2022-11-24T18:55:26.650Z,2.59
2022-11-24T18:58:16.430Z,2.63
2022-11-24T19:01:17.784Z,2.47
2022-11-24T19:04:09.709Z,2.66
2022-11-24T19:07:09.223Z,2.65
2022-11-24T19:10:03.349Z,2.58
2022-11-24T19:13:00.012Z,2.60
2022-11-24T19:15:50.289Z,2.68
2022-11-24T19:18:41.367Z,2.60
2022-11-24T19:21:34.280Z,2.67
2022-11-24T19:24:22.344Z,2.69
2022-11-24T19:27:20.048Z,2.70
2022-11-24T19:30:13.396Z,2.68
2022-11-24T19:33:04.738Z,2.69
2022-11-24T19:36:09.790Z,2.69
2022-11-24T19:39:03.438Z,2.69
2022-11-24T19:41:57.192Z,2.51
2022-11-24T19:44:54.757Z,2.71
2022-11-24T19:47:47.369Z,2.70
2022-11-24T19:50:37.299Z,2.60
2022-11-24T19:53:29.158Z,2.58
2022-11-24T19:56:24.624Z,2.51
2022-11-24T19:59:18.433Z,2.31
2022-11-24T20:02:12.020Z,2.54
2022-11-24T20:05:01.416Z,2.56
2022-11-24T20:07:55.415Z,2.65
2022-11-24T20:10:48.680Z,2.44
2022-11-24T20:13:44.647Z,2.56
2022-11-24T20:16:32.871Z,2.40
2022-11-24T20:19:24.522Z,2.63
2022-11-24T20:22:15.622Z,2.69
2022-11-24T20:25:04.679Z,2.69
2022-11-24T20:27:51.309Z,2.65
2022-11-24T20:30:43.729Z,2.58
2022-11-24T20:33:30.734Z,2.67
2022-11-24T20:36:31.437Z,2.68
2022-11-24T20:39:29.376Z,2.65
2022-11-24T20:42:15.902Z,2.47
2022-11-24T20:45:03.717Z,2.61
2022-11-24T20:47:54.359Z,2.59
2022-11-24T20:50:48.291Z,2.57
2022-11-24T20:53:39.327Z,2.71
2022-11-24T20:56:40.986Z,2.67
2022-11-24T20:59:27.331Z,2.57
2022-11-24T21:02:17.618Z,2.48
2022-11-24T21:05:05.559Z,2.67
2022-11-24T21:08:00.327Z,2.56
2022-11-24T21:10:58.162Z,2.69
2022-11-24T21:13:48.931Z,2.77
2022-11-24T21:16:42.076Z,2.77
2022-11-24T21:19:33.129Z,2.75
2022-11-24T21:22:26.361Z,2.55
2022-11-24T21:25:13.926Z,2.79
2022-11-24T21:28:00.935Z,2.77
2022-11-24T21:30:50.518Z,2.70
2022-11-24T21:33:47.807Z,2.80
2022-11-24T21:36:35.248Z,2.77
2022-11-24T21:39:29.949Z,2.77
2022-11-24T21:42:17.243Z,2.76
2022-11-24T21:45:05.024Z,2.76
2022-11-24T21:48:01.290Z,2.74
2022-11-24T21:50:53.145Z,2.73
2022-11-24T21:53:51.995Z,2.77
2022-11-24T21:56:40.374Z,2.70
2022-11-24T21:59:31.872Z,2.69
2022-11-24T22:02:21.594Z,2.57
2022-11-24T22:05:13.772Z,2.63
2022-11-24T22:07:59.967Z,2.67
2022-11-24T22:10:46.609Z,2.62
2022-11-24T22:13:33.609Z,2.71
2022-11-24T22:16:23.414Z,2.65
2022-11-24T22:19:10.579Z,2.54
2022-11-24T22:21:58.126Z,2.77
2022-11-24T22:24:44.570Z,2.71
2022-11-24T22:27:30.852Z,2.81
2022-11-24T22:30:20.534Z,2.80
2022-11-24T22:33:07.570Z,2.78
2022-11-24T22:35:58.177Z,2.69
2022-11-24T22:38:48.032Z,2.76
2022-11-24T22:41:38.730Z,2.66
2022-11-24T22:44:25.143Z,2.79
2022-11-24T22:47:11.849Z,2.77
2022-11-24T22:49:58.480Z,2.75
2022-11-24T22:52:45.321Z,2.55
2022-11-24T22:55:39.459Z,2.70
2022-11-24T22:58:26.962Z,2.73
2022-11-24T23:01:21.939Z,2.68
2022-11-24T23:04:08.259Z,2.58
2022-11-24T23:06:55.178Z,2.70
2022-11-24T23:09:41.785Z,2.69
2022-11-24T23:12:33.853Z,2.61
2022-11-24T23:15:20.986Z,2.69
2022-11-24T23:18:07.855Z,2.50
2022-11-24T23:20:53.944Z,2.70
2022-11-24T23:23:41.324Z,2.72
2022-11-24T23:26:31.561Z,2.74
2022-11-24T23:29:21.363Z,2.74
2022-11-24T23:32:11.664Z,2.71
2022-11-24T23:34:58.882Z,2.72
2022-11-24T23:38:06.519Z,2.73
2022-11-24T23:40:55.876Z,2.72
2022-11-24T23:43:50.881Z,2.68
2022-11-24T23:46:37.570Z,2.76
2022-11-24T23:49:24.166Z,2.82
2022-11-24T23:52:12.829Z,2.81
2022-11-24T23:54:59.027Z,2.74
2022-11-24T23:57:45.442Z,2.70
